sensor_id;sensor_type;location;lat;lon;timestamp;pressure;altitude;pressure_sealevel;temperature;humidity
6506;BME280;3286;49.858;8.768;2023-05-21T00:02:02;98999.34;;;18.25;52.77
6506;BME280;3286;49.858;8.768;2023-05-21T00:04:29;99002.25;;;18.03;53.09
6506;BME280;3286;49.858;8.768;2023-05-21T00:06:58;98997.28;;;18.07;53.42
6506;BME280;3286;49.858;8.768;2023-05-21T00:09:25;98994.63;;;18.54;51.98
6506;BME280;3286;49.858;8.768;2023-05-21T00:11:51;98990.09;;;18.21;52.85
6506;BME280;3286;49.858;8.768;2023-05-21T00:14:18;98996.69;;;18.25;52.82
6506;BME280;3286;49.858;8.768;2023-05-21T00:16:46;98986.00;;;18.25;52.82
6506;BME280;3286;49.858;8.768;2023-05-21T00:19:12;98990.31;;;18.53;52.13
6506;BME280;3286;49.858;8.768;2023-05-21T00:21:39;98989.28;;;18.14;52.93
6506;BME280;3286;49.858;8.768;2023-05-21T00:24:06;98977.16;;;18.18;52.97
6506;BME280;3286;49.858;8.768;2023-05-21T00:26:32;98980.03;;;18.03;53.23
6506;BME280;3286;49.858;8.768;2023-05-21T00:28:59;98979.97;;;17.89;53.92
6506;BME280;3286;49.858;8.768;2023-05-21T00:31:26;98977.56;;;18.21;53.27
6506;BME280;3286;49.858;8.768;2023-05-21T00:33:54;98979.97;;;17.89;53.93
6506;BME280;3286;49.858;8.768;2023-05-21T00:36:20;98981.19;;;17.73;54.34
6506;BME280;3286;49.858;8.768;2023-05-21T00:38:48;98972.22;;;18.01;53.35
6506;BME280;3286;49.858;8.768;2023-05-21T00:41:15;98968.88;;;17.86;53.92
6506;BME280;3286;49.858;8.768;2023-05-21T00:43:42;98970.34;;;18.15;53.27
6506;BME280;3286;49.858;8.768;2023-05-21T00:46:10;98971.34;;;17.80;54.04
6506;BME280;3286;49.858;8.768;2023-05-21T00:48:37;98969.72;;;17.86;54.05
6506;BME280;3286;49.858;8.768;2023-05-21T00:51:06;98966.63;;;17.96;53.74
6506;BME280;3286;49.858;8.768;2023-05-21T00:53:33;98961.25;;;17.83;53.96
6506;BME280;3286;49.858;8.768;2023-05-21T00:56:00;98954.50;;;17.80;54.28
6506;BME280;3286;49.858;8.768;2023-05-21T00:58:26;98958.22;;;17.99;53.75
6506;BME280;3286;49.858;8.768;2023-05-21T01:00:53;98947.91;;;17.76;54.25
6506;BME280;3286;49.858;8.768;2023-05-21T01:03:21;98953.66;;;17.79;54.21
6506;BME280;3286;49.858;8.768;2023-05-21T01:05:49;98953.38;;;17.47;54.98
6506;BME280;3286;49.858;8.768;2023-05-21T01:08:19;98947.28;;;17.67;54.64
6506;BME280;3286;49.858;8.768;2023-05-21T01:10:47;98948.28;;;17.73;54.40
6506;BME280;3286;49.858;8.768;2023-05-21T01:13:14;98938.00;;;17.56;54.80
6506;BME280;3286;49.858;8.768;2023-05-21T01:15:42;98930.22;;;17.81;54.14
6506;BME280;3286;49.858;8.768;2023-05-21T01:18:09;98930.44;;;17.87;53.84
6506;BME280;3286;49.858;8.768;2023-05-21T01:20:36;98931.47;;;17.92;53.81
6506;BME280;3286;49.858;8.768;2023-05-21T01:23:05;98932.50;;;17.78;54.19
6506;BME280;3286;49.858;8.768;2023-05-21T01:25:31;98930.22;;;17.68;54.27
6506;BME280;3286;49.858;8.768;2023-05-21T01:27:59;98931.72;;;18.04;53.65
6506;BME280;3286;49.858;8.768;2023-05-21T01:30:26;98928.59;;;17.80;54.12
6506;BME280;3286;49.858;8.768;2023-05-21T01:32:57;98931.28;;;18.01;53.47
6506;BME280;3286;49.858;8.768;2023-05-21T01:35:28;98923.47;;;17.79;54.37
6506;BME280;3286;49.858;8.768;2023-05-21T01:38:04;98925.72;;;17.82;54.14
6506;BME280;3286;49.858;8.768;2023-05-21T01:40:39;98918.53;;;18.03;53.80
6506;BME280;3286;49.858;8.768;2023-05-21T01:43:08;98916.88;;;17.75;54.59
6506;BME280;3286;49.858;8.768;2023-05-21T01:45:36;98921.19;;;17.83;54.23
6506;BME280;3286;49.858;8.768;2023-05-21T01:48:06;98914.81;;;17.90;53.99
6506;BME280;3286;49.858;8.768;2023-05-21T01:50:34;98915.88;;;18.16;53.15
6506;BME280;3286;49.858;8.768;2023-05-21T01:53:01;98914.63;;;17.99;53.47
6506;BME280;3286;49.858;8.768;2023-05-21T01:55:30;98902.69;;;17.81;54.17
6506;BME280;3286;49.858;8.768;2023-05-21T01:57:58;98902.50;;;17.76;54.30
6506;BME280;3286;49.858;8.768;2023-05-21T02:00:26;98904.38;;;18.02;53.64
6506;BME280;3286;49.858;8.768;2023-05-21T02:02:54;98908.25;;;18.00;53.56
6506;BME280;3286;49.858;8.768;2023-05-21T02:05:20;98906.38;;;17.87;53.90
6506;BME280;3286;49.858;8.768;2023-05-21T02:07:49;98901.88;;;17.87;53.98
6506;BME280;3286;49.858;8.768;2023-05-21T02:10:16;98906.41;;;17.93;53.51
6506;BME280;3286;49.858;8.768;2023-05-21T02:12:43;98902.31;;;18.04;53.48
6506;BME280;3286;49.858;8.768;2023-05-21T02:15:11;98905.34;;;17.88;53.72
6506;BME280;3286;49.858;8.768;2023-05-21T02:17:42;98912.75;;;17.72;54.12
6506;BME280;3286;49.858;8.768;2023-05-21T02:20:09;98906.22;;;17.95;53.56
6506;BME280;3286;49.858;8.768;2023-05-21T02:22:36;98901.66;;;17.95;53.55
6506;BME280;3286;49.858;8.768;2023-05-21T02:25:04;98912.13;;;17.84;53.83
6506;BME280;3286;49.858;8.768;2023-05-21T02:27:31;98911.47;;;17.41;55.08
6506;BME280;3286;49.858;8.768;2023-05-21T02:29:59;98900.19;;;17.46;55.16
6506;BME280;3286;49.858;8.768;2023-05-21T02:32:27;98902.44;;;17.35;55.60
6506;BME280;3286;49.858;8.768;2023-05-21T02:34:55;98908.53;;;17.16;56.06
6506;BME280;3286;49.858;8.768;2023-05-21T02:37:23;98902.03;;;17.38;55.58
6506;BME280;3286;49.858;8.768;2023-05-21T02:39:52;98897.75;;;17.64;54.78
6506;BME280;3286;49.858;8.768;2023-05-21T02:42:18;98893.22;;;17.45;55.25
6506;BME280;3286;49.858;8.768;2023-05-21T02:44:45;98903.09;;;17.64;54.78
6506;BME280;3286;49.858;8.768;2023-05-21T02:47:11;98902.69;;;17.81;54.25
6506;BME280;3286;49.858;8.768;2023-05-21T02:49:39;98899.91;;;17.14;56.30
6506;BME280;3286;49.858;8.768;2023-05-21T02:52:06;98903.88;;;17.51;54.96
6506;BME280;3286;49.858;8.768;2023-05-21T02:54:33;98894.88;;;17.59;54.94
6506;BME280;3286;49.858;8.768;2023-05-21T02:56:59;98900.44;;;17.78;54.46
6506;BME280;3286;49.858;8.768;2023-05-21T02:59:26;98899.38;;;17.52;54.93
6506;BME280;3286;49.858;8.768;2023-05-21T03:01:53;98904.88;;;17.37;55.69
6506;BME280;3286;49.858;8.768;2023-05-21T03:04:20;98904.94;;;17.64;54.82
6506;BME280;3286;49.858;8.768;2023-05-21T03:06:48;98899.38;;;17.52;55.27
6506;BME280;3286;49.858;8.768;2023-05-21T03:09:16;98896.28;;;17.42;55.66
6506;BME280;3286;49.858;8.768;2023-05-21T03:11:42;98904.88;;;17.37;55.40
6506;BME280;3286;49.858;8.768;2023-05-21T03:14:09;98903.47;;;17.34;55.67
6506;BME280;3286;49.858;8.768;2023-05-21T03:16:36;98898.56;;;17.58;54.96
6506;BME280;3286;49.858;8.768;2023-05-21T03:19:06;98898.72;;;17.30;55.68
6506;BME280;3286;49.858;8.768;2023-05-21T03:21:32;98894.00;;;17.32;55.59
6506;BME280;3286;49.858;8.768;2023-05-21T03:24:00;98886.41;;;17.42;55.65
6506;BME280;3286;49.858;8.768;2023-05-21T03:26:27;98901.16;;;17.31;55.59
6506;BME280;3286;49.858;8.768;2023-05-21T03:28:55;98895.47;;;17.34;55.72
6506;BME280;3286;49.858;8.768;2023-05-21T03:31:22;98889.34;;;17.61;54.66
6506;BME280;3286;49.858;8.768;2023-05-21T03:33:49;98895.66;;;17.40;55.31
6506;BME280;3286;49.858;8.768;2023-05-21T03:36:16;98893.19;;;17.51;54.95
6506;BME280;3286;49.858;8.768;2023-05-21T03:38:43;98898.56;;;17.45;55.37
6506;BME280;3286;49.858;8.768;2023-05-21T03:41:11;98890.53;;;17.38;55.41
6506;BME280;3286;49.858;8.768;2023-05-21T03:43:38;98889.47;;;17.26;55.87
6506;BME280;3286;49.858;8.768;2023-05-21T03:46:04;98900.97;;;17.19;55.88
6506;BME280;3286;49.858;8.768;2023-05-21T03:48:31;98892.31;;;17.24;55.69
6506;BME280;3286;49.858;8.768;2023-05-21T03:50:58;98893.16;;;17.25;55.96
6506;BME280;3286;49.858;8.768;2023-05-21T03:53:24;98892.88;;;17.06;56.08
6506;BME280;3286;49.858;8.768;2023-05-21T03:55:51;98896.09;;;16.94;56.43
6506;BME280;3286;49.858;8.768;2023-05-21T03:58:21;98897.81;;;17.09;56.30
6506;BME280;3286;49.858;8.768;2023-05-21T04:00:48;98901.50;;;17.08;56.35
6506;BME280;3286;49.858;8.768;2023-05-21T04:03:16;98906.47;;;17.18;55.78
6506;BME280;3286;49.858;8.768;2023-05-21T04:05:43;98899.75;;;17.29;55.65
6506;BME280;3286;49.858;8.768;2023-05-21T04:08:10;98893.34;;;17.16;55.94
6506;BME280;3286;49.858;8.768;2023-05-21T04:10:36;98891.97;;;17.47;55.12
6506;BME280;3286;49.858;8.768;2023-05-21T04:13:03;98898.72;;;17.30;55.39
6506;BME280;3286;49.858;8.768;2023-05-21T04:15:31;98899.13;;;17.33;55.70
6506;BME280;3286;49.858;8.768;2023-05-21T04:17:59;98897.88;;;17.29;56.01
6506;BME280;3286;49.858;8.768;2023-05-21T04:20:26;98895.81;;;17.18;56.07
6506;BME280;3286;49.858;8.768;2023-05-21T04:22:52;98895.25;;;17.43;55.23
6506;BME280;3286;49.858;8.768;2023-05-21T04:25:19;98905.47;;;17.32;55.63
6506;BME280;3286;49.858;8.768;2023-05-21T04:27:47;98896.69;;;17.45;55.27
6506;BME280;3286;49.858;8.768;2023-05-21T04:30:14;98906.31;;;17.33;55.42
6506;BME280;3286;49.858;8.768;2023-05-21T04:32:42;98905.28;;;17.27;55.68
6506;BME280;3286;49.858;8.768;2023-05-21T04:35:10;98904.25;;;17.28;55.81
6506;BME280;3286;49.858;8.768;2023-05-21T04:37:39;98906.91;;;17.28;55.86
6506;BME280;3286;49.858;8.768;2023-05-21T04:40:07;98913.50;;;17.26;56.02
6506;BME280;3286;49.858;8.768;2023-05-21T04:42:34;98909.59;;;17.21;55.92
6506;BME280;3286;49.858;8.768;2023-05-21T04:45:01;98914.75;;;17.43;55.37
6506;BME280;3286;49.858;8.768;2023-05-21T04:47:27;98909.81;;;17.40;55.78
6506;BME280;3286;49.858;8.768;2023-05-21T04:50:00;98912.22;;;17.15;56.48
6506;BME280;3286;49.858;8.768;2023-05-21T04:52:28;98911.00;;;17.17;55.96
6506;BME280;3286;49.858;8.768;2023-05-21T04:54:59;98910.19;;;17.17;56.10
6506;BME280;3286;49.858;8.768;2023-05-21T04:57:25;98914.50;;;17.18;56.42
6506;BME280;3286;49.858;8.768;2023-05-21T04:59:53;98909.59;;;17.28;56.46
6506;BME280;3286;49.858;8.768;2023-05-21T05:02:20;98915.94;;;17.20;56.12
6506;BME280;3286;49.858;8.768;2023-05-21T05:04:47;98915.78;;;17.35;56.13
6506;BME280;3286;49.858;8.768;2023-05-21T05:07:15;98919.03;;;17.17;56.48
6506;BME280;3286;49.858;8.768;2023-05-21T05:09:42;98911.06;;;17.44;55.87
6506;BME280;3286;49.858;8.768;2023-05-21T05:12:09;98912.72;;;17.45;56.03
6506;BME280;3286;49.858;8.768;2023-05-21T05:14:35;98912.13;;;17.70;54.87
6506;BME280;3286;49.858;8.768;2023-05-21T05:17:02;98904.53;;;17.74;55.16
6506;BME280;3286;49.858;8.768;2023-05-21T05:19:29;98914.19;;;17.81;54.92
6506;BME280;3286;49.858;8.768;2023-05-21T05:21:56;98909.88;;;17.74;55.32
6506;BME280;3286;49.858;8.768;2023-05-21T05:24:24;98907.63;;;17.84;55.13
6506;BME280;3286;49.858;8.768;2023-05-21T05:26:50;98911.53;;;17.75;55.38
6506;BME280;3286;49.858;8.768;2023-05-21T05:29:17;98904.72;;;17.52;56.37
6506;BME280;3286;49.858;8.768;2023-05-21T05:31:43;98904.31;;;17.55;55.96
6506;BME280;3286;49.858;8.768;2023-05-21T05:34:10;98907.00;;;17.89;54.84
6506;BME280;3286;49.858;8.768;2023-05-21T05:36:37;98906.63;;;18.05;54.59
6506;BME280;3286;49.858;8.768;2023-05-21T05:39:04;98905.59;;;18.06;54.99
6506;BME280;3286;49.858;8.768;2023-05-21T05:41:32;98897.78;;;18.18;54.89
6506;BME280;3286;49.858;8.768;2023-05-21T05:43:58;98898.56;;;18.46;53.96
6506;BME280;3286;49.858;8.768;2023-05-21T05:46:25;98901.47;;;17.90;55.37
6506;BME280;3286;49.858;8.768;2023-05-21T05:48:52;98897.34;;;18.35;54.51
6506;BME280;3286;49.858;8.768;2023-05-21T05:51:18;98893.81;;;18.41;54.34
6506;BME280;3286;49.858;8.768;2023-05-21T05:53:45;98897.91;;;18.64;53.81
6506;BME280;3286;49.858;8.768;2023-05-21T05:56:11;98891.47;;;18.72;53.59
6506;BME280;3286;49.858;8.768;2023-05-21T05:58:39;98901.38;;;18.71;53.70
6506;BME280;3286;49.858;8.768;2023-05-21T06:01:06;98888.53;;;19.00;52.87
6506;BME280;3286;49.858;8.768;2023-05-21T06:03:33;98899.69;;;19.29;51.85
6506;BME280;3286;49.858;8.768;2023-05-21T06:05:59;98889.84;;;19.23;52.38
6506;BME280;3286;49.858;8.768;2023-05-21T06:08:26;98895.69;;;19.45;51.91
6506;BME280;3286;49.858;8.768;2023-05-21T06:10:52;98890.28;;;19.52;51.98
6506;BME280;3286;49.858;8.768;2023-05-21T06:13:19;98894.06;;;19.69;51.46
6506;BME280;3286;49.858;8.768;2023-05-21T06:15:47;98886.75;;;19.58;51.89
6506;BME280;3286;49.858;8.768;2023-05-21T06:18:14;98889.53;;;20.02;50.85
6506;BME280;3286;49.858;8.768;2023-05-21T06:20:40;98883.63;;;19.93;50.74
6506;BME280;3286;49.858;8.768;2023-05-21T06:23:07;98896.47;;;19.78;50.83
6506;BME280;3286;49.858;8.768;2023-05-21T06:25:34;98891.03;;;20.17;50.13
6506;BME280;3286;49.858;8.768;2023-05-21T06:28:00;98894.97;;;20.14;50.43
6506;BME280;3286;49.858;8.768;2023-05-21T06:30:27;98889.94;;;20.24;50.23
6506;BME280;3286;49.858;8.768;2023-05-21T06:32:55;98885.69;;;20.35;50.01
6506;BME280;3286;49.858;8.768;2023-05-21T06:35:22;98893.81;;;20.47;50.05
6506;BME280;3286;49.858;8.768;2023-05-21T06:37:49;98894.34;;;20.56;49.75
6506;BME280;3286;49.858;8.768;2023-05-21T06:40:15;98888.97;;;20.37;49.97
6506;BME280;3286;49.858;8.768;2023-05-21T06:42:42;98889.28;;;20.66;49.78
6506;BME280;3286;49.858;8.768;2023-05-21T06:45:10;98889.88;;;20.68;49.74
6506;BME280;3286;49.858;8.768;2023-05-21T06:47:36;98891.59;;;20.63;49.79
6506;BME280;3286;49.858;8.768;2023-05-21T06:50:05;98890.19;;;20.16;51.20
6506;BME280;3286;49.858;8.768;2023-05-21T06:52:32;98891.44;;;20.20;51.16
6506;BME280;3286;49.858;8.768;2023-05-21T06:54:58;98891.78;;;20.24;51.22
6506;BME280;3286;49.858;8.768;2023-05-21T06:57:25;98889.78;;;19.94;51.56
6506;BME280;3286;49.858;8.768;2023-05-21T06:59:51;98891.47;;;20.14;51.39
6506;BME280;3286;49.858;8.768;2023-05-21T07:02:18;98892.69;;;20.18;51.48
6506;BME280;3286;49.858;8.768;2023-05-21T07:04:44;98891.81;;;20.43;50.90
6506;BME280;3286;49.858;8.768;2023-05-21T07:07:13;98886.59;;;21.04;49.62
6506;BME280;3286;49.858;8.768;2023-05-21T07:09:39;98888.31;;;20.61;50.50
6506;BME280;3286;49.858;8.768;2023-05-21T07:12:06;98890.09;;;20.67;50.56
6506;BME280;3286;49.858;8.768;2023-05-21T07:14:33;98881.50;;;20.77;50.27
6506;BME280;3286;49.858;8.768;2023-05-21T07:16:59;98886.97;;;21.19;49.41
6506;BME280;3286;49.858;8.768;2023-05-21T07:19:26;98891.34;;;21.32;49.30
6506;BME280;3286;49.858;8.768;2023-05-21T07:21:53;98886.88;;;21.56;48.61
6506;BME280;3286;49.858;8.768;2023-05-21T07:24:22;98889.41;;;21.70;48.06
6506;BME280;3286;49.858;8.768;2023-05-21T07:26:48;98887.63;;;21.64;47.90
6506;BME280;3286;49.858;8.768;2023-05-21T07:29:15;98883.19;;;21.69;48.39
6506;BME280;3286;49.858;8.768;2023-05-21T07:31:41;98884.25;;;21.68;49.11
6506;BME280;3286;49.858;8.768;2023-05-21T07:34:08;98878.44;;;22.07;47.56
6506;BME280;3286;49.858;8.768;2023-05-21T07:36:35;98878.53;;;21.89;48.23
6506;BME280;3286;49.858;8.768;2023-05-21T07:39:01;98875.06;;;21.46;49.07
6506;BME280;3286;49.858;8.768;2023-05-21T07:41:30;98877.94;;;21.75;48.63
6506;BME280;3286;49.858;8.768;2023-05-21T07:43:57;98876.91;;;21.88;48.55
6506;BME280;3286;49.858;8.768;2023-05-21T07:46:25;98875.72;;;21.83;48.51
6506;BME280;3286;49.858;8.768;2023-05-21T07:48:52;98866.16;;;22.47;47.27
6506;BME280;3286;49.858;8.768;2023-05-21T07:51:18;98876.00;;;22.82;46.71
6506;BME280;3286;49.858;8.768;2023-05-21T07:53:45;98867.00;;;22.77;46.89
6506;BME280;3286;49.858;8.768;2023-05-21T07:56:12;98865.81;;;23.25;45.31
6506;BME280;3286;49.858;8.768;2023-05-21T07:58:40;98859.72;;;22.48;47.09
6506;BME280;3286;49.858;8.768;2023-05-21T08:01:10;98871.44;;;22.06;47.85
6506;BME280;3286;49.858;8.768;2023-05-21T08:03:37;98872.34;;;22.36;47.10
6506;BME280;3286;49.858;8.768;2023-05-21T08:06:03;98869.31;;;23.14;46.52
6506;BME280;3286;49.858;8.768;2023-05-21T08:08:30;98874.09;;;22.54;47.26
6506;BME280;3286;49.858;8.768;2023-05-21T08:10:56;98870.75;;;22.76;46.79
6506;BME280;3286;49.858;8.768;2023-05-21T08:13:23;98876.44;;;22.50;47.08
6506;BME280;3286;49.858;8.768;2023-05-21T08:15:51;98870.97;;;22.86;46.65
6506;BME280;3286;49.858;8.768;2023-05-21T08:18:18;98872.63;;;22.87;47.11
6506;BME280;3286;49.858;8.768;2023-05-21T08:20:44;98867.53;;;23.32;45.81
6506;BME280;3286;49.858;8.768;2023-05-21T08:23:12;98867.28;;;23.33;45.59
6506;BME280;3286;49.858;8.768;2023-05-21T08:25:39;98861.09;;;23.84;44.91
6506;BME280;3286;49.858;8.768;2023-05-21T08:28:05;98864.47;;;23.91;44.52
6506;BME280;3286;49.858;8.768;2023-05-21T08:30:32;98861.81;;;24.30;44.03
6506;BME280;3286;49.858;8.768;2023-05-21T08:33:00;98864.03;;;24.56;43.12
6506;BME280;3286;49.858;8.768;2023-05-21T08:35:27;98867.75;;;23.30;45.55
6506;BME280;3286;49.858;8.768;2023-05-21T08:37:54;98873.88;;;22.96;46.75
6506;BME280;3286;49.858;8.768;2023-05-21T08:40:20;98871.84;;;22.63;47.11
6506;BME280;3286;49.858;8.768;2023-05-21T08:42:48;98867.19;;;23.28;45.57
6506;BME280;3286;49.858;8.768;2023-05-21T08:45:19;98867.81;;;23.81;44.69
6506;BME280;3286;49.858;8.768;2023-05-21T08:47:46;98865.91;;;23.99;44.65
6506;BME280;3286;49.858;8.768;2023-05-21T08:50:16;98867.88;;;23.52;45.27
6506;BME280;3286;49.858;8.768;2023-05-21T08:52:43;98853.72;;;24.30;43.73
6506;BME280;3286;49.858;8.768;2023-05-21T08:55:11;98858.13;;;24.81;43.01
6506;BME280;3286;49.858;8.768;2023-05-21T08:57:41;98855.38;;;24.76;43.60
6506;BME280;3286;49.858;8.768;2023-05-21T09:00:09;98855.63;;;24.74;41.26
6506;BME280;3286;49.858;8.768;2023-05-21T09:02:37;98859.25;;;25.40;40.51
6506;BME280;3286;49.858;8.768;2023-05-21T09:05:05;98862.47;;;24.82;41.65
6506;BME280;3286;49.858;8.768;2023-05-21T09:07:39;98861.81;;;25.85;40.44
6506;BME280;3286;49.858;8.768;2023-05-21T09:10:11;98854.06;;;25.34;40.71
6506;BME280;3286;49.858;8.768;2023-05-21T09:12:38;98852.66;;;24.54;40.89
6506;BME280;3286;49.858;8.768;2023-05-21T09:15:06;98866.34;;;24.08;40.96
6506;BME280;3286;49.858;8.768;2023-05-21T09:17:33;98860.88;;;24.42;41.04
6506;BME280;3286;49.858;8.768;2023-05-21T09:20:07;98858.84;;;24.32;40.36
6506;BME280;3286;49.858;8.768;2023-05-21T09:22:43;98858.69;;;24.83;40.15
6506;BME280;3286;49.858;8.768;2023-05-21T09:25:12;98861.00;;;24.97;39.37
6506;BME280;3286;49.858;8.768;2023-05-21T09:27:39;98856.19;;;23.98;40.70
6506;BME280;3286;49.858;8.768;2023-05-21T09:30:11;98861.13;;;25.35;38.88
6506;BME280;3286;49.858;8.768;2023-05-21T09:32:40;98862.75;;;25.63;38.67
6506;BME280;3286;49.858;8.768;2023-05-21T09:35:08;98864.19;;;25.76;38.88
6506;BME280;3286;49.858;8.768;2023-05-21T09:37:38;98860.59;;;25.65;38.40
6506;BME280;3286;49.858;8.768;2023-05-21T09:40:14;98859.41;;;25.28;39.18
6506;BME280;3286;49.858;8.768;2023-05-21T09:42:42;98854.53;;;24.98;40.36
6506;BME280;3286;49.858;8.768;2023-05-21T09:45:11;98860.56;;;24.83;40.43
6506;BME280;3286;49.858;8.768;2023-05-21T09:47:41;98862.00;;;25.45;39.60
6506;BME280;3286;49.858;8.768;2023-05-21T09:50:09;98858.44;;;25.67;39.40
6506;BME280;3286;49.858;8.768;2023-05-21T09:52:37;98861.63;;;25.59;39.28
6506;BME280;3286;49.858;8.768;2023-05-21T09:55:04;98859.09;;;25.47;37.68
6506;BME280;3286;49.858;8.768;2023-05-21T09:57:39;98852.41;;;25.55;38.67
6506;BME280;3286;49.858;8.768;2023-05-21T10:00:07;98840.66;;;25.44;39.04
6506;BME280;3286;49.858;8.768;2023-05-21T10:02:36;98855.47;;;24.64;39.41
6506;BME280;3286;49.858;8.768;2023-05-21T10:05:07;98851.53;;;24.72;40.28
6506;BME280;3286;49.858;8.768;2023-05-21T10:07:36;98845.72;;;25.08;39.64
6506;BME280;3286;49.858;8.768;2023-05-21T10:10:06;98845.69;;;25.35;38.78
6506;BME280;3286;49.858;8.768;2023-05-21T10:12:37;98843.59;;;25.42;38.77
6506;BME280;3286;49.858;8.768;2023-05-21T10:15:08;98840.41;;;25.18;39.72
6506;BME280;3286;49.858;8.768;2023-05-21T10:17:38;98830.56;;;25.34;38.74
6506;BME280;3286;49.858;8.768;2023-05-21T10:20:07;98831.63;;;25.06;39.66
6506;BME280;3286;49.858;8.768;2023-05-21T10:22:36;98832.69;;;24.33;40.80
6506;BME280;3286;49.858;8.768;2023-05-21T10:25:04;98832.97;;;24.58;41.16
6506;BME280;3286;49.858;8.768;2023-05-21T10:27:32;98832.19;;;25.08;40.15
6506;BME280;3286;49.858;8.768;2023-05-21T10:30:03;98828.19;;;25.43;39.60
6506;BME280;3286;49.858;8.768;2023-05-21T10:32:31;98830.50;;;24.74;40.50
6506;BME280;3286;49.858;8.768;2023-05-21T10:34:58;98823.53;;;26.09;38.04
6506;BME280;3286;49.858;8.768;2023-05-21T10:37:26;98819.03;;;25.82;38.60
6506;BME280;3286;49.858;8.768;2023-05-21T10:39:52;98817.00;;;25.29;39.76
6506;BME280;3286;49.858;8.768;2023-05-21T10:42:23;98824.53;;;25.27;39.48
6506;BME280;3286;49.858;8.768;2023-05-21T10:45:04;98820.41;;;25.19;40.35
6506;BME280;3286;49.858;8.768;2023-05-21T10:47:46;98818.31;;;24.99;40.42
6506;BME280;3286;49.858;8.768;2023-05-21T10:50:47;98817.88;;;25.67;39.74
6506;BME280;3286;49.858;8.768;2023-05-21T10:53:21;98816.66;;;25.91;38.62
6506;BME280;3286;49.858;8.768;2023-05-21T10:55:58;98813.69;;;26.35;37.84
6506;BME280;3286;49.858;8.768;2023-05-21T11:01:39;98814.22;;;25.51;40.05
6506;BME280;3286;49.858;8.768;2023-05-21T11:04:06;98813.25;;;26.06;38.20
6506;BME280;3286;49.858;8.768;2023-05-21T11:06:33;98812.53;;;26.95;36.76
6506;BME280;3286;49.858;8.768;2023-05-21T11:09:01;98805.88;;;26.49;37.02
6506;BME280;3286;49.858;8.768;2023-05-21T11:11:42;98804.88;;;26.76;36.29
6506;BME280;3286;49.858;8.768;2023-05-21T11:14:27;98801.19;;;27.13;34.46
6506;BME280;3286;49.858;8.768;2023-05-21T11:16:57;98807.44;;;27.45;34.60
6506;BME280;3286;49.858;8.768;2023-05-21T11:19:36;98792.19;;;27.96;33.92
6506;BME280;3286;49.858;8.768;2023-05-21T11:22:07;98797.97;;;28.49;33.10
6506;BME280;3286;49.858;8.768;2023-05-21T11:24:36;98792.16;;;28.72;32.44
6506;BME280;3286;49.858;8.768;2023-05-21T11:27:03;98794.91;;;27.90;34.22
6506;BME280;3286;49.858;8.768;2023-05-21T11:29:41;98789.81;;;27.68;33.95
6506;BME280;3286;49.858;8.768;2023-05-21T11:32:11;98788.88;;;28.25;32.55
6506;BME280;3286;49.858;8.768;2023-05-21T11:34:41;98783.91;;;28.92;32.14
6506;BME280;3286;49.858;8.768;2023-05-21T11:37:25;98783.00;;;26.98;34.39
6506;BME280;3286;49.858;8.768;2023-05-21T11:39:53;98780.75;;;26.69;35.67
6506;BME280;3286;49.858;8.768;2023-05-21T11:42:31;98778.03;;;28.14;33.67
6506;BME280;3286;49.858;8.768;2023-05-21T11:44:59;98780.25;;;27.86;32.55
6506;BME280;3286;49.858;8.768;2023-05-21T11:47:28;98775.22;;;28.40;32.73
6506;BME280;3286;49.858;8.768;2023-05-21T11:49:57;98779.88;;;28.24;32.16
6506;BME280;3286;49.858;8.768;2023-05-21T11:52:24;98765.50;;;29.19;31.37
6506;BME280;3286;49.858;8.768;2023-05-21T11:54:52;98773.34;;;28.30;31.32
6506;BME280;3286;49.858;8.768;2023-05-21T11:57:20;98773.16;;;28.16;32.18
6506;BME280;3286;49.858;8.768;2023-05-21T11:59:48;98779.41;;;28.07;32.66
6506;BME280;3286;49.858;8.768;2023-05-21T12:02:16;98773.72;;;27.98;33.49
6506;BME280;3286;49.858;8.768;2023-05-21T12:04:46;98781.94;;;27.77;33.12
6506;BME280;3286;49.858;8.768;2023-05-21T12:07:14;98776.22;;;27.73;32.51
6506;BME280;3286;49.858;8.768;2023-05-21T12:09:42;98780.94;;;28.39;31.89
6506;BME280;3286;49.858;8.768;2023-05-21T12:12:10;98779.47;;;27.75;31.79
6506;BME280;3286;49.858;8.768;2023-05-21T12:14:38;98776.78;;;28.57;31.63
6506;BME280;3286;49.858;8.768;2023-05-21T12:17:05;98776.56;;;29.28;29.15
6506;BME280;3286;49.858;8.768;2023-05-21T12:19:34;98767.00;;;29.01;29.30
6506;BME280;3286;49.858;8.768;2023-05-21T12:22:03;98775.97;;;29.36;30.05
6506;BME280;3286;49.858;8.768;2023-05-21T12:24:31;98770.09;;;28.84;30.17
6506;BME280;3286;49.858;8.768;2023-05-21T12:26:59;98773.38;;;28.75;29.81
6506;BME280;3286;49.858;8.768;2023-05-21T12:29:26;98777.03;;;27.27;31.59
6506;BME280;3286;49.858;8.768;2023-05-21T12:31:53;98773.41;;;28.15;31.03
6506;BME280;3286;49.858;8.768;2023-05-21T12:34:40;98781.25;;;28.82;30.58
6506;BME280;3286;49.858;8.768;2023-05-21T12:37:10;98773.56;;;28.95;29.29
6506;BME280;3286;49.858;8.768;2023-05-21T12:39:41;98774.94;;;28.92;28.99
6506;BME280;3286;49.858;8.768;2023-05-21T12:42:08;98772.25;;;30.10;27.75
6506;BME280;3286;49.858;8.768;2023-05-21T12:44:37;98773.72;;;30.27;27.34
6506;BME280;3286;49.858;8.768;2023-05-21T12:47:05;98768.97;;;30.32;28.60
6506;BME280;3286;49.858;8.768;2023-05-21T12:49:33;98762.91;;;30.16;29.20
6506;BME280;3286;49.858;8.768;2023-05-21T12:52:06;98773.16;;;29.46;29.63
6506;BME280;3286;49.858;8.768;2023-05-21T12:54:36;98774.03;;;29.42;28.74
6506;BME280;3286;49.858;8.768;2023-05-21T12:57:09;98770.53;;;29.01;29.64
6506;BME280;3286;49.858;8.768;2023-05-21T12:59:46;98769.38;;;29.72;29.14
6506;BME280;3286;49.858;8.768;2023-05-21T13:02:15;98765.16;;;29.60;29.10
6506;BME280;3286;49.858;8.768;2023-05-21T13:04:42;98762.91;;;30.16;28.21
6506;BME280;3286;49.858;8.768;2023-05-21T13:07:09;98767.38;;;29.24;30.12
6506;BME280;3286;49.858;8.768;2023-05-21T13:09:37;98758.84;;;29.01;29.95
6506;BME280;3286;49.858;8.768;2023-05-21T13:12:04;98756.75;;;28.87;30.54
6506;BME280;3286;49.858;8.768;2023-05-21T13:14:30;98758.13;;;28.29;30.69
6506;BME280;3286;49.858;8.768;2023-05-21T13:16:57;98756.47;;;29.58;30.36
6506;BME280;3286;49.858;8.768;2023-05-21T13:19:24;98761.94;;;30.50;29.04
6506;BME280;3286;49.858;8.768;2023-05-21T13:21:51;98745.06;;;30.48;27.95
6506;BME280;3286;49.858;8.768;2023-05-21T13:24:17;98758.72;;;29.51;28.88
6506;BME280;3286;49.858;8.768;2023-05-21T13:26:45;98743.94;;;28.93;29.49
6506;BME280;3286;49.858;8.768;2023-05-21T13:29:12;98765.94;;;27.13;30.84
6506;BME280;3286;49.858;8.768;2023-05-21T13:31:40;98759.97;;;27.63;30.13